Time;durP1;ratioP1;P1;durP2;ratioP2;P2;SDS_P1;SDS_P2;PMS_P1;PMS_P2;Temp;Humidity;BMP_temperature;BMP_pressure;BME280_temperature;BME280_humidity;BME280_pressure;Samples;Min_cycle;Max_cycle;Signal;HPM_P1;HPM_P2
2023/10/11 07:58:32;;;;;;;;;7.50;7.25;;;;;;;;5105630;27;13479;-72
2023/10/11 08:01:02;;;;;;;;;23.25;21.25;;;;;;;;5108382;28;10277;-73
2023/10/11 08:03:34;;;;;;;;;20.25;19.25;;;;;;;;5108047;28;10125;-71
2023/10/11 08:06:00;;;;;;;;;18.25;17.00;;;;;;;;5108410;28;10616;-69
2023/10/11 08:08:30;;;;;;;;;20.00;17.67;;;;;;;;5108027;28;9553;-70
2023/10/11 08:10:56;;;;;;;;;19.00;17.00;;;;;;;;5108011;28;9301;-68
2023/10/11 08:13:25;;;;;;;;;22.33;19.33;;;;;;;;5108019;28;9217;-70
2023/10/11 08:15:55;;;;;;;;;19.00;16.00;;;;;;;;5106720;28;8808;-70
2023/10/11 08:18:21;;;;;;;;;18.00;16.67;;;;;;;;5108043;28;8787;-69
2023/10/11 08:20:47;;;;;;;;;22.33;18.67;;;;;;;;5107960;28;8944;-68
2023/10/11 08:23:13;;;;;;;;;21.00;17.67;;;;;;;;5107863;28;9846;-71
2023/10/11 08:25:40;;;;;;;;;18.33;18.00;;;;;;;;5107567;28;8787;-70
2023/10/11 08:28:19;;;;;;;;;21.00;17.00;;;;;;;;5106958;28;9267;-70
2023/10/11 08:30:45;;;;;;;;;21.67;17.00;;;;;;;;5106267;28;9211;-69
2023/10/11 08:33:12;;;;;;;;;21.33;19.00;;;;;;;;5107248;28;9192;-69
2023/10/11 08:35:38;;;;;;;;;16.67;14.33;;;;;;;;5107057;28;9314;-70
2023/10/11 08:38:06;;;;;;;;;18.67;16.00;;;;;;;;5106954;28;9291;-69
2023/10/11 08:40:36;;;;;;;;;18.00;16.67;;;;;;;;5107517;28;8795;-69
2023/10/11 08:43:02;;;;;;;;;21.67;17.33;;;;;;;;5107470;28;9131;-68
2023/10/11 08:45:33;;;;;;;;;14.00;11.75;;;;;;;;5107413;28;9151;-68
2023/10/11 08:48:05;;;;;;;;;16.75;16.50;;;;;;;;5107358;28;9613;-68
2023/10/11 08:50:34;;;;;;;;;20.00;17.50;;;;;;;;5107148;28;8900;-69
2023/10/11 08:53:01;;;;;;;;;16.25;15.75;;;;;;;;5104716;28;8951;-69
2023/10/11 08:55:26;;;;;;;;;14.00;13.50;;;;;;;;5106758;28;8896;-68
2023/10/11 08:57:53;;;;;;;;;17.33;15.67;;;;;;;;5106210;28;9581;-69
2023/10/11 09:00:28;;;;;;;;;21.00;17.75;;;;;;;;5106645;28;8804;-69
2023/10/11 09:02:54;;;;;;;;;15.00;14.25;;;;;;;;5105011;28;8796;-69
2023/10/11 09:05:32;;;;;;;;;16.00;15.33;;;;;;;;5106582;28;9636;-68
2023/10/11 09:07:58;;;;;;;;;14.25;13.50;;;;;;;;5102100;28;8792;-69
2023/10/11 09:10:27;;;;;;;;;19.00;16.33;;;;;;;;5089436;28;9000;-69
2023/10/11 09:12:56;;;;;;;;;14.75;14.75;;;;;;;;5090407;28;8788;-69
2023/10/11 09:15:24;;;;;;;;;16.75;16.75;;;;;;;;5092488;28;8812;-69
2023/10/11 09:18:08;;;;;;;;;14.50;14.00;;;;;;;;5089690;28;8820;-69
2023/10/11 09:20:40;;;;;;;;;17.50;17.50;;;;;;;;5092356;28;8815;-69
2023/10/11 09:23:05;;;;;;;;;17.75;16.25;;;;;;;;5090000;28;8780;-69
2023/10/11 09:25:33;;;;;;;;;18.33;16.00;;;;;;;;5092601;28;8876;-70
2023/10/11 09:27:59;;;;;;;;;11.50;11.50;;;;;;;;5092592;28;8808;-72
2023/10/11 09:30:27;;;;;;;;;17.67;16.00;;;;;;;;5092996;28;8815;-70
2023/10/11 09:32:52;;;;;;;;;15.25;14.00;;;;;;;;5092055;28;8888;-69
2023/10/11 09:35:23;;;;;;;;;18.00;18.00;;;;;;;;5091675;28;8780;-70
2023/10/11 09:37:49;;;;;;;;;15.20;14.20;;;;;;;;5091301;28;8820;-70
2023/10/11 09:40:16;;;;;;;;;18.25;16.00;;;;;;;;5092441;28;8784;-69
2023/10/11 09:42:43;;;;;;;;;21.25;20.50;;;;;;;;5092526;28;8819;-70
2023/10/11 09:45:16;;;;;;;;;17.60;17.00;;;;;;;;5092679;28;8772;-70
2023/10/11 09:47:42;;;;;;;;;22.80;20.40;;;;;;;;5092545;28;8772;-70
2023/10/11 09:50:14;;;;;;;;;14.25;14.00;;;;;;;;5092668;28;8784;-70
2023/10/11 09:52:45;;;;;;;;;16.40;15.40;;;;;;;;5092622;28;8784;-71
2023/10/11 09:55:17;;;;;;;;;19.20;17.80;;;;;;;;5092507;28;8799;-70
2023/10/11 09:57:50;;;;;;;;;20.60;17.80;;;;;;;;5092378;28;8930;-70
2023/10/11 10:00:37;;;;;;;;;13.20;13.00;;;;;;;;5092765;28;8794;-69
2023/10/11 10:03:04;;;;;;;;;16.80;15.00;;;;;;;;5092239;28;8922;-70
2023/10/11 10:05:49;;;;;;;;;22.00;18.00;;;;;;;;5092406;28;8938;-70
2023/10/11 10:08:15;;;;;;;;;13.60;13.60;;;;;;;;5086222;28;8849;-70
2023/10/11 10:10:54;;;;;;;;;19.75;17.75;;;;;;;;5080698;28;8786;-71
2023/10/11 10:13:24;;;;;;;;;15.60;14.40;;;;;;;;5071082;28;8782;-70
2023/10/11 10:15:52;;;;;;;;;21.40;20.40;;;;;;;;5070595;28;8814;-69
2023/10/11 10:18:17;;;;;;;;;10.60;10.60;;;;;;;;5071670;28;8806;-70
2023/10/11 10:20:44;;;;;;;;;16.50;16.00;;;;;;;;5070747;28;9508;-70
2023/10/11 10:23:15;;;;;;;;;13.80;13.80;;;;;;;;5070430;28;8802;-69
2023/10/11 10:25:46;;;;;;;;;15.20;15.20;;;;;;;;5071762;28;8814;-70
2023/10/11 10:28:30;;;;;;;;;14.80;13.60;;;;;;;;5070361;28;8806;-70
2023/10/11 10:31:04;;;;;;;;;20.40;18.60;;;;;;;;5071505;28;8782;-70
2023/10/11 10:33:35;;;;;;;;;17.20;15.00;;;;;;;;5079894;22;8904;-71
2023/10/11 10:36:20;;;;;;;;;16.00;13.00;;;;;;;;5070558;28;8811;-70
2023/10/11 10:39:01;;;;;;;;;13.60;12.80;;;;;;;;5071575;28;8871;-71
2023/10/11 10:41:26;;;;;;;;;13.20;12.60;;;;;;;;5070605;28;8815;-70
2023/10/11 10:44:04;;;;;;;;;17.75;17.75;;;;;;;;5071567;28;8861;-70
2023/10/11 10:46:32;;;;;;;;;14.00;12.80;;;;;;;;5071677;28;8813;-71
2023/10/11 10:48:58;;;;;;;;;20.00;18.00;;;;;;;;5071329;28;8802;-70
2023/10/11 10:51:27;;;;;;;;;15.00;13.00;;;;;;;;5071361;28;8799;-71
2023/10/11 10:53:53;;;;;;;;;15.40;14.60;;;;;;;;5070124;28;8845;-71
2023/10/11 10:56:24;;;;;;;;;23.33;23.33;;;;;;;;5071221;28;8858;-70
2023/10/11 10:59:07;;;;;;;;;21.75;20.00;;;;;;;;5071319;28;8845;-70
2023/10/11 11:01:34;;;;;;;;;18.25;17.00;;;;;;;;5071303;28;8807;-70
2023/10/11 11:03:59;;;;;;;;;16.25;16.00;;;;;;;;5071098;28;8802;-70
2023/10/11 11:06:36;;;;;;;;;13.67;13.67;;;;;;;;5071250;28;9501;-70
2023/10/11 11:09:01;;;;;;;;;21.75;19.00;;;;;;;;5069993;28;8807;-70
2023/10/11 11:11:26;;;;;;;;;22.00;21.00;;;;;;;;5071035;28;8807;-69
2023/10/11 11:13:52;;;;;;;;;18.00;16.33;;;;;;;;5071043;28;8920;-70
2023/10/11 11:16:19;;;;;;;;;17.00;14.33;;;;;;;;5069407;28;8883;-70
2023/10/11 11:18:45;;;;;;;;;16.00;15.25;;;;;;;;5070835;28;8797;-70
2023/10/11 11:21:17;;;;;;;;;15.00;13.67;;;;;;;;5070884;28;8795;-70
2023/10/11 11:23:44;;;;;;;;;14.25;14.25;;;;;;;;5070967;28;8787;-70
2023/10/11 11:26:15;;;;;;;;;19.75;17.25;;;;;;;;5071038;28;8783;-70
2023/10/11 11:28:44;;;;;;;;;19.25;15.00;;;;;;;;5070715;28;8829;-69
2023/10/11 11:31:13;;;;;;;;;22.75;21.75;;;;;;;;5070552;28;8795;-70
2023/10/11 11:33:48;;;;;;;;;23.50;21.75;;;;;;;;5071046;28;9750;-70
2023/10/11 11:36:34;;;;;;;;;18.00;17.25;;;;;;;;5069491;28;8895;-69
2023/10/11 11:39:25;;;;;;;;;19.00;18.25;;;;;;;;5069500;28;8831;-70
2023/10/11 11:41:54;;;;;;;;;17.50;17.25;;;;;;;;5070678;28;8798;-70
2023/10/11 11:44:22;;;;;;;;;19.00;15.00;;;;;;;;5070617;28;8790;-70
2023/10/11 11:46:48;;;;;;;;;19.00;17.00;;;;;;;;5070561;28;8834;-70
2023/10/11 11:49:15;;;;;;;;;17.50;15.75;;;;;;;;5070442;28;8791;-70
2023/10/11 11:51:41;;;;;;;;;17.25;17.25;;;;;;;;5070550;28;9552;-69
2023/10/11 11:54:09;;;;;;;;;22.33;19.33;;;;;;;;5070538;28;8864;-70
2023/10/11 11:56:35;;;;;;;;;15.75;14.50;;;;;;;;5070420;28;8822;-70
2023/10/11 11:59:00;;;;;;;;;23.33;22.33;;;;;;;;5070509;28;8884;-70
2023/10/11 12:01:26;;;;;;;;;16.67;15.67;;;;;;;;5070509;28;9485;-70
2023/10/11 12:03:55;;;;;;;;;16.25;16.25;;;;;;;;5070192;28;8887;-70
2023/10/11 12:06:23;;;;;;;;;15.50;14.75;;;;;;;;5070247;28;8806;-70
2023/10/11 12:08:58;;;;;;;;;16.00;15.25;;;;;;;;5070473;28;8829;-70
2023/10/11 12:11:28;;;;;;;;;20.25;19.25;;;;;;;;5070183;28;8787;-70
2023/10/11 12:13:56;;;;;;;;;19.50;19.50;;;;;;;;5070362;28;8782;-70
2023/10/11 12:16:22;;;;;;;;;19.00;17.00;;;;;;;;5070106;28;8871;-69
2023/10/11 12:18:48;;;;;;;;;16.00;14.50;;;;;;;;5070029;28;8799;-69
2023/10/11 12:21:15;;;;;;;;;15.67;14.00;;;;;;;;5070179;28;8794;-69
2023/10/11 12:23:47;;;;;;;;;22.25;21.50;;;;;;;;5070256;28;8802;-69
2023/10/11 12:26:12;;;;;;;;;15.75;15.00;;;;;;;;5070249;28;8836;-70
2023/10/11 12:28:38;;;;;;;;;13.67;10.33;;;;;;;;5070152;28;8790;-69
2023/10/11 12:31:04;;;;;;;;;16.33;15.33;;;;;;;;5069970;28;8909;-69
2023/10/11 12:33:30;;;;;;;;;24.33;22.33;;;;;;;;5070154;28;8838;-69
2023/10/11 12:35:56;;;;;;;;;18.25;17.00;;;;;;;;5069961;28;8791;-69
2023/10/11 12:38:21;;;;;;;;;22.00;22.00;;;;;;;;5070074;28;8830;-69
2023/10/11 12:40:47;;;;;;;;;23.00;22.00;;;;;;;;5069720;28;8810;-69
2023/10/11 12:43:13;;;;;;;;;23.67;21.33;;;;;;;;5070411;28;8809;-69
2023/10/11 12:45:44;;;;;;;;;26.00;23.00;;;;;;;;5073560;28;9740;-69
2023/10/11 12:48:10;;;;;;;;;22.67;20.00;;;;;;;;5073381;28;8927;-69
2023/10/11 12:50:38;;;;;;;;;16.33;14.00;;;;;;;;5073486;28;9686;-68
2023/10/11 12:53:10;;;;;;;;;14.00;14.00;;;;;;;;5073501;28;8787;-69
2023/10/11 12:55:41;;;;;;;;;15.75;15.50;;;;;;;;5073496;28;9135;-69
2023/10/11 12:58:06;;;;;;;;;20.50;19.75;;;;;;;;5073375;28;8854;-69
2023/10/11 13:00:37;;;;;;;;;17.67;13.67;;;;;;;;5073214;28;8798;-68
2023/10/11 13:05:46;;;;;;;;;15.25;14.00;;;;;;;;5073342;28;9031;-68
2023/10/11 13:08:12;;;;;;;;;16.33;15.00;;;;;;;;5073247;28;8914;-69
2023/10/11 13:10:45;;;;;;;;;18.33;15.00;;;;;;;;5073148;28;8775;-69
2023/10/11 13:13:10;;;;;;;;;15.33;15.00;;;;;;;;5073187;28;8774;-69
2023/10/11 13:15:39;;;;;;;;;21.67;21.67;;;;;;;;5073148;28;9040;-69
2023/10/11 13:18:09;;;;;;;;;23.67;21.00;;;;;;;;5073106;28;9831;-69
2023/10/11 13:20:35;;;;;;;;;23.00;21.33;;;;;;;;5073037;28;9029;-69
2023/10/11 13:23:01;;;;;;;;;21.00;19.00;;;;;;;;5073113;28;9973;-69
2023/10/11 13:25:27;;;;;;;;;25.00;22.00;;;;;;;;5072927;28;8876;-68
2023/10/11 13:27:54;;;;;;;;;13.50;12.75;;;;;;;;5073112;28;8870;-68
2023/10/11 13:30:23;;;;;;;;;15.25;13.00;;;;;;;;5071703;28;8803;-68
2023/10/11 13:32:51;;;;;;;;;24.33;23.00;;;;;;;;5073318;28;9563;-68
2023/10/11 13:35:17;;;;;;;;;19.00;16.67;;;;;;;;5072922;28;8960;-71
2023/10/11 13:37:46;;;;;;;;;17.33;15.00;;;;;;;;5072808;28;8912;-70
2023/10/11 13:40:15;;;;;;;;;12.50;12.00;;;;;;;;5042738;28;8962;-68
2023/10/11 13:42:42;;;;;;;;;21.25;18.75;;;;;;;;5040951;28;8834;-68
2023/10/11 13:45:09;;;;;;;;;14.00;14.00;;;;;;;;5047314;28;8805;-67
2023/10/11 13:47:38;;;;;;;;;20.00;19.00;;;;;;;;5052666;28;8969;-69
2023/10/11 13:50:08;;;;;;;;;22.67;20.67;;;;;;;;5049396;28;9169;-68
2023/10/11 13:52:37;;;;;;;;;14.67;14.67;;;;;;;;5036958;28;9081;-68
2023/10/11 13:55:10;;;;;;;;;18.33;18.33;;;;;;;;5040804;28;9339;-68
2023/10/11 13:57:36;;;;;;;;;13.67;12.00;;;;;;;;5041601;28;9308;-68
2023/10/11 14:01:00;;;;;;;;;15.00;14.00;;;;;;;;5043078;28;9043;-68
2023/10/11 14:02:47;;;;;;;;;21.00;19.00;;;;;;;;5045183;28;8836;-69
2023/10/11 14:05:18;;;;;;;;;20.67;20.67;;;;;;;;5041880;28;9040;-69
2023/10/11 14:07:53;;;;;;;;;14.50;14.50;;;;;;;;5042436;28;8816;-68
2023/10/11 14:10:28;;;;;;;;;16.67;16.00;;;;;;;;5043535;28;8912;-68
2023/10/11 14:13:07;;;;;;;;;18.33;17.00;;;;;;;;5040435;28;9061;-71
2023/10/11 14:15:32;;;;;;;;;25.00;24.00;;;;;;;;5043125;28;8966;-70
2023/10/11 14:18:00;;;;;;;;;20.67;19.67;;;;;;;;5041825;28;9218;-70
2023/10/11 14:20:30;;;;;;;;;20.33;19.00;;;;;;;;5042245;28;9588;-70
2023/10/11 14:22:57;;;;;;;;;20.67;19.67;;;;;;;;5046021;28;9042;-69
2023/10/11 14:25:24;;;;;;;;;22.67;19.00;;;;;;;;5048590;28;9050;-69
2023/10/11 14:27:50;;;;;;;;;19.50;18.00;;;;;;;;5038890;28;9154;-68
2023/10/11 14:30:16;;;;;;;;;13.33;13.00;;;;;;;;5032069;28;9069;-68
2023/10/11 14:32:42;;;;;;;;;15.00;15.00;;;;;;;;5045820;28;9568;-68
2023/10/11 14:35:08;;;;;;;;;14.33;14.33;;;;;;;;5071544;28;9029;-68
2023/10/11 14:37:40;;;;;;;;;14.67;14.67;;;;;;;;5071513;28;8997;-68
2023/10/11 14:40:14;;;;;;;;;14.00;14.00;;;;;;;;5071662;28;8900;-68
2023/10/11 14:42:39;;;;;;;;;16.00;16.00;;;;;;;;5070116;28;9047;-69
2023/10/11 14:45:05;;;;;;;;;16.33;15.67;;;;;;;;5037701;28;9062;-68
2023/10/11 14:47:30;;;;;;;;;16.00;14.00;;;;;;;;5050735;28;8809;-68
2023/10/11 14:49:57;;;;;;;;;16.67;16.67;;;;;;;;5050107;28;8964;-68
2023/10/11 14:52:22;;;;;;;;;18.00;17.67;;;;;;;;5050198;28;8805;-69
2023/10/11 14:54:48;;;;;;;;;13.33;13.00;;;;;;;;5050656;28;8990;-70
2023/10/11 14:57:13;;;;;;;;;10.00;10.00;;;;;;;;5049708;28;9662;-70
2023/10/11 14:59:39;;;;;;;;;12.33;12.33;;;;;;;;5048051;28;8837;-69
2023/10/11 15:02:05;;;;;;;;;11.67;11.00;;;;;;;;5052300;28;8832;-69
2023/10/11 15:04:32;;;;;;;;;11.67;10.67;;;;;;;;5070725;28;8961;-71
2023/10/11 15:06:57;;;;;;;;;15.33;14.67;;;;;;;;5070468;28;8802;-71
2023/10/11 15:09:23;;;;;;;;;13.00;11.33;;;;;;;;5056802;28;8974;-71
2023/10/11 15:11:48;;;;;;;;;17.67;16.33;;;;;;;;5050769;28;8916;-71
2023/10/11 15:14:14;;;;;;;;;15.33;15.33;;;;;;;;5040328;28;8817;-72
2023/10/11 15:16:39;;;;;;;;;14.67;12.00;;;;;;;;5040613;28;8831;-71
2023/10/11 15:19:05;;;;;;;;;15.33;14.33;;;;;;;;5036583;28;8821;-71
2023/10/11 15:21:30;;;;;;;;;15.33;15.33;;;;;;;;5039408;28;8827;-70
2023/10/11 15:23:56;;;;;;;;;18.67;17.67;;;;;;;;5035275;28;8922;-70
2023/10/11 15:26:21;;;;;;;;;18.00;15.67;;;;;;;;5039257;28;8837;-70
2023/10/11 15:28:51;;;;;;;;;18.00;18.00;;;;;;;;5048587;28;8927;-71
2023/10/11 15:31:17;;;;;;;;;12.00;9.00;;;;;;;;5041327;28;8817;-71
2023/10/11 15:33:42;;;;;;;;;17.67;15.67;;;;;;;;5045413;28;8932;-71
2023/10/11 15:36:08;;;;;;;;;13.00;13.00;;;;;;;;5050596;28;8825;-70
2023/10/11 15:38:34;;;;;;;;;16.00;16.00;;;;;;;;5050477;28;8833;-70
2023/10/11 15:41:00;;;;;;;;;18.67;16.67;;;;;;;;5049638;28;8805;-71
2023/10/11 15:43:25;;;;;;;;;17.33;13.00;;;;;;;;5040296;28;8797;-72
2023/10/11 15:45:51;;;;;;;;;15.67;14.00;;;;;;;;5041016;28;9245;-69
2023/10/11 15:48:17;;;;;;;;;15.33;15.00;;;;;;;;5038911;28;8855;-70
2023/10/11 15:50:42;;;;;;;;;17.67;17.67;;;;;;;;5039969;28;8907;-70
2023/10/11 15:53:07;;;;;;;;;19.33;18.33;;;;;;;;5040351;28;9792;-70
2023/10/11 15:55:40;;;;;;;;;14.00;12.00;;;;;;;;5038569;28;8905;-70
2023/10/11 15:58:06;;;;;;;;;9.33;9.33;;;;;;;;5039055;28;8832;-70
2023/10/11 16:00:31;;;;;;;;;16.33;15.00;;;;;;;;5040729;28;8985;-71
2023/10/11 16:02:56;;;;;;;;;13.00;12.33;;;;;;;;5045919;28;8810;-72
2023/10/11 16:05:22;;;;;;;;;12.00;10.00;;;;;;;;5039436;28;8902;-71
